createdAt,value
2018-01-24T00:01:41.903Z,7.03
2018-01-24T00:04:09.449Z,6.50
2018-01-24T00:06:37.774Z,6.57
2018-01-24T00:09:05.297Z,8.00
2018-01-24T00:11:33.616Z,7.23
2018-01-24T00:14:01.163Z,7.33
2018-01-24T00:16:28.743Z,8.07
2018-01-24T00:18:56.275Z,7.97
2018-01-24T00:21:23.826Z,7.50
2018-01-24T00:23:51.355Z,7.10
2018-01-24T00:26:19.682Z,9.17
2018-01-24T00:28:47.205Z,8.03
2018-01-24T00:31:15.553Z,8.77
2018-01-24T00:33:43.081Z,9.00
2018-01-24T00:36:10.632Z,8.13
2018-01-24T00:38:38.156Z,9.17
2018-01-24T00:41:06.469Z,8.73
2018-01-24T00:43:34.006Z,8.70
2018-01-24T00:46:01.553Z,8.33
2018-01-24T00:48:29.862Z,9.17
2018-01-24T00:50:57.420Z,8.50
2018-01-24T00:53:24.950Z,9.27
2018-01-24T00:55:53.269Z,8.70
2018-01-24T00:58:20.803Z,10.30
2018-01-24T01:00:48.384Z,9.27
2018-01-24T01:03:15.906Z,9.17
2018-01-24T01:05:44.219Z,9.47
2018-01-24T01:08:11.826Z,11.37
2018-01-24T01:10:39.395Z,11.17
2018-01-24T01:13:07.697Z,10.10
2018-01-24T01:15:35.249Z,9.93
2018-01-24T01:18:03.541Z,10.47
2018-01-24T01:20:31.093Z,10.57
2018-01-24T01:22:58.627Z,10.97
2018-01-24T01:25:26.191Z,10.60
2018-01-24T01:27:54.557Z,10.40
2018-01-24T01:30:22.114Z,10.77
2018-01-24T01:32:49.706Z,9.83
2018-01-24T01:35:18.052Z,10.17
2018-01-24T01:37:45.574Z,9.40
2018-01-24T01:40:13.129Z,10.30
2018-01-24T01:42:40.657Z,10.30
2018-01-24T01:45:09.001Z,10.80
2018-01-24T01:47:36.522Z,10.40
2018-01-24T01:50:04.078Z,9.57
2018-01-24T01:52:31.633Z,9.67
2018-01-24T01:54:59.177Z,10.40
2018-01-24T01:57:27.498Z,10.13
2018-01-24T01:59:55.033Z,8.93
2018-01-24T02:02:22.581Z,10.67
2018-01-24T02:04:50.202Z,9.50
2018-01-24T02:07:17.762Z,8.87
2018-01-24T02:09:45.290Z,10.63
2018-01-24T02:12:12.833Z,9.70
2018-01-24T02:14:40.376Z,9.03
2018-01-24T02:17:08.686Z,8.73
2018-01-24T02:19:36.213Z,9.97
2018-01-24T02:22:04.530Z,9.73
2018-01-24T02:24:32.061Z,11.50
2018-01-24T02:26:59.621Z,9.63
2018-01-24T02:29:27.152Z,9.57
2018-01-24T02:31:55.473Z,8.20
2018-01-24T02:34:23.009Z,9.93
2018-01-24T02:36:50.558Z,8.80
2018-01-24T02:39:18.967Z,9.80
2018-01-24T02:41:46.547Z,9.67
2018-01-24T02:44:14.078Z,10.13
2018-01-24T02:46:41.681Z,10.10
2018-01-24T02:49:09.215Z,9.43
2018-01-24T02:51:36.762Z,9.20
2018-01-24T02:54:04.287Z,10.83
2018-01-24T02:56:32.637Z,9.30
2018-01-24T02:59:00.195Z,10.27
2018-01-24T03:01:27.743Z,8.90
2018-01-24T03:03:55.295Z,9.33
2018-01-24T03:06:22.849Z,10.40
2018-01-24T03:08:50.386Z,10.93
2018-01-24T03:11:17.958Z,10.70
2018-01-24T03:13:45.524Z,9.43
2018-01-24T03:16:13.084Z,10.63
2018-01-24T03:18:40.609Z,10.63
2018-01-24T03:21:08.182Z,11.80
2018-01-24T03:23:36.478Z,9.47
2018-01-24T03:28:57.714Z,11.33
2018-01-24T03:31:25.266Z,11.00
2018-01-24T03:33:52.805Z,11.77
2018-01-24T03:36:21.130Z,10.60
2018-01-24T03:38:48.649Z,11.40
2018-01-24T03:41:16.209Z,10.40
2018-01-24T03:43:43.745Z,11.07
2018-01-24T03:46:11.306Z,11.03
2018-01-24T03:48:38.841Z,11.40
2018-01-24T03:51:06.389Z,9.60
2018-01-24T03:53:33.923Z,10.57
2018-01-24T03:56:01.473Z,10.20
2018-01-24T03:58:29.006Z,11.00
2018-01-24T04:00:57.327Z,9.03
2018-01-24T04:03:24.857Z,10.07
2018-01-24T04:05:53.177Z,9.13
2018-01-24T04:08:20.718Z,8.90
2018-01-24T04:10:48.274Z,10.27
2018-01-24T04:13:15.802Z,10.70
2018-01-24T04:15:44.098Z,10.67
2018-01-24T04:18:11.646Z,8.43
2018-01-24T04:20:39.933Z,8.70
2018-01-24T04:23:07.485Z,8.87
2018-01-24T04:25:35.779Z,8.43
2018-01-24T04:28:03.334Z,8.50
2018-01-24T04:30:30.863Z,8.37
2018-01-24T04:32:58.413Z,7.07
2018-01-24T04:35:25.938Z,7.70
2018-01-24T04:37:53.492Z,7.23
2018-01-24T04:40:21.018Z,7.40
2018-01-24T04:42:49.337Z,7.57
2018-01-24T04:45:16.869Z,7.23
2018-01-24T04:47:44.426Z,7.20
2018-01-24T04:50:11.954Z,8.50
2018-01-24T04:52:39.506Z,7.53
2018-01-24T04:55:07.033Z,7.73
2018-01-24T04:57:34.597Z,7.63
2018-01-24T05:00:02.123Z,7.13
2018-01-24T05:02:29.673Z,7.50
2018-01-24T05:04:57.969Z,7.17
2018-01-24T05:07:25.522Z,7.17
2018-01-24T05:09:53.054Z,6.43
2018-01-24T05:12:20.620Z,8.50
2018-01-24T05:14:48.913Z,7.50
2018-01-24T05:17:16.470Z,6.90
2018-01-24T05:19:44.761Z,7.20
2018-01-24T05:22:12.316Z,6.97
2018-01-24T05:24:39.849Z,7.30
2018-01-24T05:27:07.406Z,6.67
2018-01-24T05:29:34.930Z,6.90
2018-01-24T05:32:02.478Z,7.83
2018-01-24T05:34:30.005Z,6.70
2018-01-24T05:36:57.558Z,6.53
2018-01-24T05:39:25.862Z,7.57
2018-01-24T05:41:53.414Z,7.17
2018-01-24T05:44:20.950Z,7.03
2018-01-24T05:46:49.262Z,6.90
2018-01-24T05:49:16.790Z,5.80
2018-01-24T05:51:45.078Z,6.30
2018-01-24T05:54:12.630Z,6.03
2018-01-24T05:56:40.923Z,6.10
2018-01-24T05:59:08.477Z,6.33
2018-01-24T06:01:36.006Z,6.00
2018-01-24T06:04:03.554Z,6.40
2018-01-24T06:06:31.084Z,6.57
2018-01-24T06:08:58.639Z,7.03
2018-01-24T06:11:26.162Z,6.87
2018-01-24T06:13:54.474Z,6.67
2018-01-24T06:16:22.024Z,6.30
2018-01-24T06:18:49.571Z,6.90
2018-01-24T06:21:17.097Z,6.93
2018-01-24T06:23:44.649Z,6.67
2018-01-24T06:26:12.178Z,8.03
2018-01-24T06:28:39.727Z,7.13
2018-01-24T06:52:09.362Z,9.23
2018-01-24T06:54:36.884Z,8.77
2018-01-24T06:57:04.445Z,8.70
2018-01-24T06:59:31.974Z,8.50
2018-01-24T07:01:59.501Z,8.03
2018-01-24T07:04:27.053Z,7.90
2018-01-24T07:06:55.400Z,7.57
2018-01-24T07:09:22.910Z,7.77
2018-01-24T07:11:50.450Z,8.30
2018-01-24T07:14:30.699Z,8.20
2018-01-24T07:16:58.990Z,7.73
2018-01-24T07:19:26.546Z,8.20
2018-01-24T07:21:54.840Z,7.53
2018-01-24T07:24:22.396Z,8.50
2018-01-24T07:26:49.914Z,7.23
2018-01-24T07:29:17.461Z,9.20
2018-01-24T07:31:44.982Z,9.47
2018-01-24T07:34:12.536Z,10.57
2018-01-24T07:36:40.069Z,10.50
2018-01-24T07:39:08.389Z,10.33
2018-01-24T07:41:35.917Z,10.43
2018-01-24T07:44:04.242Z,10.77
2018-01-24T07:46:31.802Z,11.17
2018-01-24T07:48:59.350Z,12.40
2018-01-24T07:51:26.874Z,11.40
2018-01-24T07:53:55.186Z,11.03
2018-01-24T07:56:22.718Z,11.33
2018-01-24T07:58:50.273Z,13.07
2018-01-24T08:01:17.806Z,11.90
2018-01-24T08:03:45.366Z,14.70
2018-01-24T08:06:12.889Z,11.83
2018-01-24T08:08:40.434Z,13.63
2018-01-24T08:11:07.956Z,14.60
2018-01-24T08:13:36.274Z,11.90
2018-01-24T08:16:03.806Z,13.50
2018-01-24T08:18:31.365Z,10.87
2018-01-24T08:20:59.654Z,12.50
2018-01-24T08:23:27.205Z,12.03
2018-01-24T08:25:54.734Z,12.77
2018-01-24T08:28:22.278Z,12.00
2018-01-24T08:30:49.813Z,16.13
2018-01-24T08:33:17.379Z,15.80
2018-01-24T08:35:44.908Z,14.30
2018-01-24T08:38:12.462Z,12.50
2018-01-24T08:40:40.001Z,13.40
2018-01-24T08:43:08.324Z,13.87
2018-01-24T08:45:35.850Z,14.30
2018-01-24T08:48:04.158Z,11.87
2018-01-24T08:50:31.676Z,12.23
2018-01-24T08:53:00.002Z,14.20
2018-01-24T08:55:27.541Z,15.43
2018-01-24T08:57:55.102Z,13.20
2018-01-24T09:00:40.201Z,13.37
2018-01-24T09:03:25.442Z,11.60
2018-01-24T09:06:10.537Z,10.07
2018-01-24T09:08:55.885Z,9.23
2018-01-24T09:11:41.069Z,9.63
2018-01-24T09:14:26.014Z,10.10
2018-01-24T09:17:11.921Z,9.90
2018-01-24T09:19:56.978Z,10.10
2018-01-24T09:22:42.958Z,10.07
2018-01-24T09:25:11.266Z,9.00
2018-01-24T09:27:38.790Z,9.80
2018-01-24T09:30:06.338Z,9.30
2018-01-24T09:32:33.870Z,8.27
2018-01-24T09:35:01.421Z,9.33
2018-01-24T09:37:28.949Z,8.93
2018-01-24T09:39:57.253Z,9.13
2018-01-24T09:42:24.778Z,8.97
2018-01-24T09:44:53.101Z,8.30
2018-01-24T09:47:20.621Z,7.60
2018-01-24T09:49:48.934Z,8.80
2018-01-24T09:52:16.458Z,9.53
2018-01-24T09:54:44.770Z,7.83
2018-01-24T09:57:12.298Z,7.70
2018-01-24T09:59:40.613Z,6.80
2018-01-24T10:02:08.129Z,7.00
2018-01-24T10:04:36.439Z,6.33
2018-01-24T10:07:03.974Z,6.57
2018-01-24T10:09:31.497Z,6.80
2018-01-24T10:11:59.046Z,5.50
2018-01-24T10:14:26.566Z,6.30
2018-01-24T10:16:54.108Z,6.40
2018-01-24T10:19:22.399Z,5.73
2018-01-24T10:21:49.947Z,6.17
2018-01-24T10:24:17.474Z,6.17
2018-01-24T10:26:45.033Z,5.73
2018-01-24T10:29:12.561Z,6.00
2018-01-24T10:31:40.108Z,6.10
2018-01-24T10:34:07.631Z,5.70
2018-01-24T10:36:35.947Z,6.67
2018-01-24T10:39:03.469Z,6.53
2018-01-24T10:41:31.786Z,6.60
2018-01-24T10:43:59.301Z,6.20
2018-01-24T10:46:27.617Z,5.80
2018-01-24T10:48:55.154Z,6.73
2018-01-24T10:51:22.712Z,6.70
2018-01-24T10:53:50.264Z,6.03
2018-01-24T10:56:18.578Z,6.43
2018-01-24T10:58:46.126Z,7.30
2018-01-24T11:01:13.677Z,6.60
2018-01-24T11:03:41.212Z,6.50
2018-01-24T11:06:09.573Z,6.10
2018-01-24T11:08:37.090Z,6.33
2018-01-24T11:11:04.633Z,6.43
2018-01-24T11:13:32.155Z,5.90
2018-01-24T11:15:59.697Z,7.03
2018-01-24T11:18:27.231Z,7.60
2018-01-24T11:20:54.789Z,7.87
2018-01-24T11:23:22.305Z,6.87
2018-01-24T11:25:50.620Z,5.70
2018-01-24T11:28:18.191Z,6.50
2018-01-24T11:30:45.701Z,5.93
2018-01-24T11:33:13.995Z,6.10
2018-01-24T11:35:41.545Z,7.00
2018-01-24T11:38:09.830Z,5.83
2018-01-24T11:40:38.138Z,6.07
2018-01-24T11:43:05.658Z,6.17
2018-01-24T11:45:33.973Z,6.00
2018-01-24T11:48:01.493Z,6.43
2018-01-24T11:50:29.816Z,6.10
2018-01-24T11:52:57.343Z,6.10
2018-01-24T11:55:24.898Z,5.73
2018-01-24T11:57:53.185Z,5.13
2018-01-24T12:00:20.732Z,5.50
2018-01-24T12:02:49.019Z,5.30
2018-01-24T12:05:16.565Z,4.63
2018-01-24T12:07:44.849Z,4.80
2018-01-24T12:10:13.165Z,5.00
2018-01-24T12:12:40.694Z,5.60
2018-01-24T12:15:08.230Z,5.00
2018-01-24T12:17:36.552Z,5.10
2018-01-24T12:20:04.073Z,4.60
2018-01-24T12:22:32.400Z,4.90
2018-01-24T12:24:59.938Z,4.90
2018-01-24T12:27:27.491Z,5.70
2018-01-24T12:29:55.023Z,6.00
2018-01-24T12:32:23.336Z,5.80
2018-01-24T12:34:50.870Z,5.50
2018-01-24T12:37:19.185Z,4.83
2018-01-24T12:39:46.717Z,4.70
2018-01-24T12:42:14.269Z,4.70
2018-01-24T12:44:42.557Z,4.37
2018-01-24T12:47:10.110Z,4.47
2018-01-24T12:49:38.401Z,6.40
2018-01-24T12:52:05.949Z,5.73
2018-01-24T12:54:34.229Z,4.30
2018-01-24T12:57:01.787Z,3.83
2018-01-24T12:59:29.325Z,3.97
2018-01-24T13:02:03.379Z,4.57
2018-01-24T13:04:30.906Z,4.33
2018-01-24T13:06:59.225Z,4.10
2018-01-24T13:09:26.753Z,5.00
2018-01-24T13:11:55.069Z,3.77
2018-01-24T13:14:22.600Z,4.17
2018-01-24T13:16:50.157Z,3.63
2018-01-24T13:19:17.682Z,3.63
2018-01-24T13:21:45.238Z,4.40
2018-01-24T13:24:12.864Z,4.53
2018-01-24T13:26:40.436Z,3.90
2018-01-24T13:29:07.965Z,3.53
2018-01-24T13:31:35.519Z,3.80
2018-01-24T13:34:03.042Z,4.10
2018-01-24T13:36:30.602Z,3.30
2018-01-24T13:38:58.135Z,3.00
2018-01-24T13:41:25.688Z,2.97
2018-01-24T13:43:53.209Z,3.37
2018-01-24T13:46:20.754Z,2.87
2018-01-24T13:48:49.057Z,3.53
2018-01-24T13:51:16.610Z,3.10
2018-01-24T13:53:44.138Z,3.23
2018-01-24T13:56:11.701Z,3.10
2018-01-24T13:58:39.232Z,3.20
2018-01-24T14:01:06.790Z,4.00
2018-01-24T14:03:34.319Z,3.10
2018-01-24T14:06:01.870Z,3.13
2018-01-24T14:08:29.397Z,3.23
2018-01-24T14:10:57.719Z,2.93
2018-01-24T14:13:25.256Z,3.03
2018-01-24T14:15:52.822Z,2.97
2018-01-24T14:18:20.351Z,3.37
2018-01-24T14:20:47.897Z,3.40
2018-01-24T14:23:15.426Z,3.50
2018-01-24T14:25:42.953Z,4.50
2018-01-24T14:28:10.501Z,3.50
2018-01-24T14:30:38.801Z,3.97
2018-01-24T14:33:06.357Z,3.67
2018-01-24T14:35:33.909Z,3.80
2018-01-24T14:38:02.221Z,4.90
2018-01-24T14:40:29.756Z,4.57
2018-01-24T14:42:57.318Z,3.60
2018-01-24T14:45:24.837Z,3.90
2018-01-24T14:47:54.959Z,3.80
2018-01-24T14:50:20.710Z,3.40
2018-01-24T14:52:48.253Z,3.87
2018-01-24T14:55:16.548Z,3.33
2018-01-24T14:57:44.133Z,3.23
2018-01-24T15:00:11.665Z,3.17
2018-01-24T15:02:39.226Z,3.77
2018-01-24T15:05:06.803Z,3.77
2018-01-24T15:07:34.386Z,4.70
2018-01-24T15:10:01.895Z,5.43
2018-01-24T15:12:30.218Z,4.87
2018-01-24T15:14:57.746Z,3.97
2018-01-24T15:17:25.353Z,3.87
2018-01-24T15:19:52.859Z,3.30
2018-01-24T15:22:20.410Z,3.60
2018-01-24T15:24:48.709Z,3.73
2018-01-24T15:27:21.366Z,3.43
2018-01-24T15:29:49.665Z,2.80
2018-01-24T15:32:17.219Z,3.40
2018-01-24T15:34:44.757Z,3.00
2018-01-24T15:37:13.089Z,2.97
2018-01-24T15:39:40.618Z,2.97
2018-01-24T15:42:08.174Z,2.80
2018-01-24T15:44:35.715Z,3.70
2018-01-24T15:47:04.034Z,3.50
2018-01-24T15:49:31.561Z,3.63
2018-01-24T15:51:59.874Z,4.80
2018-01-24T15:54:27.410Z,6.60
2018-01-24T15:56:54.968Z,5.33
2018-01-24T15:59:22.498Z,5.63
2018-01-24T16:01:50.057Z,4.20
2018-01-24T16:04:17.589Z,3.83
2018-01-24T16:06:45.146Z,3.37
2018-01-24T16:09:13.442Z,3.03
2018-01-24T16:11:41.002Z,3.20
2018-01-24T16:14:08.533Z,3.07
2018-01-24T16:16:36.082Z,2.93
2018-01-24T16:19:03.613Z,3.27
2018-01-24T16:21:31.925Z,2.57
2018-01-24T16:23:59.465Z,2.80
2018-01-24T16:26:27.024Z,2.60
2018-01-24T16:28:54.566Z,2.90
2018-01-24T16:31:22.878Z,2.73
2018-01-24T16:33:50.451Z,2.97
2018-01-24T16:36:17.969Z,2.40
2018-01-24T16:38:45.501Z,2.80
2018-01-24T16:41:13.026Z,3.30
2018-01-24T16:43:40.579Z,2.60
2018-01-24T16:46:08.105Z,2.53
2018-01-24T16:48:36.435Z,3.00
2018-01-24T16:51:03.958Z,3.70
2018-01-24T16:53:31.505Z,4.13
2018-01-24T16:55:59.040Z,3.40
2018-01-24T16:58:27.362Z,4.30
2018-01-24T17:00:54.886Z,3.53
2018-01-24T17:03:23.202Z,3.47
2018-01-24T17:05:50.730Z,2.70
2018-01-24T17:08:19.041Z,3.27
2018-01-24T17:10:46.574Z,3.60
2018-01-24T17:13:14.125Z,4.20
2018-01-24T17:15:42.413Z,3.73
2018-01-24T17:18:09.958Z,3.53
2018-01-24T17:20:38.273Z,4.23
2018-01-24T17:23:05.810Z,4.13
2018-01-24T17:25:33.342Z,4.20
2018-01-24T17:28:00.887Z,3.80
2018-01-24T17:30:28.414Z,4.40
2018-01-24T17:32:55.953Z,4.10
2018-01-24T17:35:23.478Z,4.67
2018-01-24T17:37:51.034Z,4.17
2018-01-24T17:40:18.562Z,4.30
2018-01-24T17:42:46.109Z,4.60
2018-01-24T17:45:13.630Z,3.50
2018-01-24T17:47:41.944Z,3.70
2018-01-24T17:50:09.470Z,3.60
2018-01-24T17:52:37.787Z,3.50
2018-01-24T17:55:05.308Z,3.50
2018-01-24T17:57:33.630Z,3.27
2018-01-24T18:00:01.154Z,3.10
2018-01-24T18:02:28.706Z,3.50
2018-01-24T18:04:57.019Z,4.50
2018-01-24T18:07:24.564Z,3.20
2018-01-24T18:09:52.085Z,3.13
2018-01-24T18:12:19.646Z,4.23
2018-01-24T18:14:47.174Z,3.30
2018-01-24T18:17:14.727Z,3.87
2018-01-24T18:19:42.258Z,3.30
2018-01-24T18:22:09.803Z,3.90
2018-01-24T18:24:37.325Z,4.20
2018-01-24T18:27:04.866Z,3.43
2018-01-24T18:29:32.393Z,4.23
2018-01-24T18:31:59.934Z,4.17
2018-01-24T18:34:28.213Z,3.50
2018-01-24T18:36:56.525Z,3.70
2018-01-24T18:39:24.057Z,3.87
2018-01-24T18:41:51.611Z,3.90
2018-01-24T18:44:19.147Z,3.17
2018-01-24T18:46:46.674Z,3.70
2018-01-24T18:49:14.225Z,3.47
2018-01-24T18:51:41.741Z,3.93
2018-01-24T18:54:10.062Z,3.80
2018-01-24T18:56:37.587Z,4.30
2018-01-24T18:59:05.899Z,3.70
2018-01-24T19:01:33.431Z,4.10
2018-01-24T19:04:00.977Z,3.63
2018-01-24T19:06:29.265Z,3.90
2018-01-24T19:08:57.577Z,4.70
2018-01-24T19:11:25.110Z,4.60
2018-01-24T19:13:52.775Z,3.70
2018-01-24T19:16:20.307Z,5.10
2018-01-24T19:18:48.635Z,4.20
2018-01-24T19:21:16.159Z,5.40
2018-01-24T19:23:43.718Z,4.80
2018-01-24T19:26:12.005Z,3.70
2018-01-24T19:28:39.555Z,4.00
2018-01-24T19:31:07.086Z,6.10
2018-01-24T19:33:34.642Z,3.60
2018-01-24T19:36:02.162Z,3.93
2018-01-24T19:38:29.682Z,5.20
2018-01-24T19:40:58.001Z,3.47
2018-01-24T19:43:25.526Z,4.57
2018-01-24T19:45:53.846Z,5.03
2018-01-24T19:48:21.369Z,3.60
2018-01-24T19:50:48.913Z,4.80
2018-01-24T19:53:17.197Z,4.70
2018-01-24T19:55:45.531Z,4.23
2018-01-24T19:58:13.056Z,4.77
2018-01-24T20:00:40.606Z,4.10
2018-01-24T20:03:08.142Z,3.60
2018-01-24T20:05:36.453Z,5.53
2018-01-24T20:08:03.978Z,4.60
2018-01-24T20:10:32.294Z,4.60
2018-01-24T20:12:59.818Z,5.83
2018-01-24T20:15:28.130Z,5.00
2018-01-24T20:17:55.658Z,4.87
2018-01-24T20:20:23.986Z,5.90
2018-01-24T20:22:51.517Z,5.17
2018-01-24T20:25:19.070Z,5.27
2018-01-24T20:27:46.607Z,5.30
2018-01-24T20:30:14.930Z,4.90
2018-01-24T20:32:42.451Z,5.20
2018-01-24T20:35:10.761Z,4.70
2018-01-24T20:37:38.286Z,4.13
2018-01-24T20:40:06.610Z,5.93
2018-01-24T20:42:34.126Z,5.37
2018-01-24T20:45:02.418Z,6.57
2018-01-24T20:47:29.962Z,6.97
2018-01-24T20:49:58.254Z,5.63
2018-01-24T20:52:25.801Z,5.63
2018-01-24T20:54:54.094Z,5.93
2018-01-24T20:57:21.667Z,7.00
2018-01-24T20:59:49.189Z,6.77
2018-01-24T21:02:17.522Z,6.83
2018-01-24T21:04:45.046Z,6.57
2018-01-24T21:07:12.587Z,7.30
2018-01-24T21:09:40.885Z,6.40
2018-01-24T21:12:08.438Z,7.23
2018-01-24T21:14:36.725Z,8.20
2018-01-24T21:17:04.286Z,7.33
2018-01-24T21:19:31.811Z,7.40
2018-01-24T21:21:59.373Z,7.83
2018-01-24T21:24:26.899Z,7.23
2018-01-24T21:26:54.501Z,6.53
2018-01-24T21:29:34.851Z,10.03
2018-01-24T21:32:14.297Z,7.43
2018-01-24T21:34:54.394Z,6.70
2018-01-24T21:37:21.944Z,8.50
2018-01-24T21:39:49.474Z,6.67
2018-01-24T21:42:17.798Z,6.43
2018-01-24T21:44:45.342Z,7.20
2018-01-24T21:47:12.918Z,8.00
2018-01-24T21:49:41.075Z,7.83
2018-01-24T21:52:09.557Z,8.33
2018-01-24T21:54:37.578Z,6.97
2018-01-24T21:57:05.137Z,9.67
2018-01-24T21:59:32.658Z,7.43
2018-01-24T22:02:00.187Z,7.60
2018-01-24T22:04:28.510Z,8.63
2018-01-24T22:06:56.056Z,6.80
2018-01-24T22:09:23.626Z,8.57
2018-01-24T22:11:51.154Z,8.90
2018-01-24T22:14:18.706Z,7.00
2018-01-24T22:16:47.037Z,6.73
2018-01-24T22:19:14.594Z,8.30
2018-01-24T22:21:42.126Z,7.20
2018-01-24T22:24:09.680Z,8.00
2018-01-24T22:26:37.213Z,9.03
2018-01-24T22:29:05.546Z,6.80
2018-01-24T22:31:33.066Z,7.83
2018-01-24T22:34:00.622Z,8.77
2018-01-24T22:36:28.241Z,8.00
2018-01-24T22:38:55.842Z,9.63
2018-01-24T22:41:23.374Z,9.20
2018-01-24T22:43:51.752Z,9.40
2018-01-24T22:46:19.274Z,11.20
2018-01-24T22:48:46.819Z,9.77
2018-01-24T22:51:29.058Z,10.07
2018-01-24T22:53:56.607Z,9.50
2018-01-24T22:56:24.139Z,9.80
2018-01-24T22:58:51.686Z,10.13
2018-01-24T23:01:19.214Z,9.10
2018-01-24T23:03:46.770Z,8.97
2018-01-24T23:06:14.302Z,10.00
2018-01-24T23:08:41.827Z,8.17
2018-01-24T23:11:09.377Z,9.33
2018-01-24T23:13:37.661Z,9.63
2018-01-24T23:16:05.241Z,10.07
2018-01-24T23:18:32.786Z,10.10
2018-01-24T23:21:00.365Z,8.60
2018-01-24T23:23:27.894Z,8.50
2018-01-24T23:25:56.210Z,10.63
2018-01-24T23:28:24.510Z,11.47
2018-01-24T23:30:52.053Z,9.30
2018-01-24T23:33:19.573Z,7.07
2018-01-24T23:35:47.121Z,8.50
2018-01-24T23:38:15.414Z,7.70
2018-01-24T23:40:42.967Z,7.83
2018-01-24T23:43:10.488Z,7.87
2018-01-24T23:45:38.060Z,7.53
2018-01-24T23:48:05.618Z,8.47
2018-01-24T23:50:33.165Z,8.07
2018-01-24T23:53:00.694Z,7.90
2018-01-24T23:55:28.243Z,9.17
2018-01-24T23:57:55.819Z,10.60
